createdAt,value
2023-05-22T00:01:06.738Z,68.20
2023-05-22T00:03:37.432Z,68.30
2023-05-22T00:06:06.359Z,68.60
2023-05-22T00:08:34.448Z,68.50
2023-05-22T00:11:02.740Z,68.60
2023-05-22T00:13:30.937Z,68.80
2023-05-22T00:15:59.057Z,68.90
2023-05-22T00:18:28.001Z,69.00
2023-05-22T00:20:58.091Z,69.10
2023-05-22T00:23:27.932Z,69.40
2023-05-22T00:25:56.096Z,69.40
2023-05-22T00:28:24.224Z,69.40
2023-05-22T00:30:52.407Z,69.50
2023-05-22T00:33:20.556Z,69.70
2023-05-22T00:35:48.786Z,69.70
2023-05-22T00:38:32.285Z,69.90
2023-05-22T00:41:00.676Z,70.90
2023-05-22T00:43:29.258Z,69.30
2023-05-22T00:45:57.426Z,69.70
2023-05-22T00:48:26.007Z,69.90
2023-05-22T00:50:55.807Z,70.20
2023-05-22T00:53:26.333Z,70.50
2023-05-22T00:55:56.430Z,70.60
2023-05-22T00:58:28.085Z,70.70
2023-05-22T01:00:56.638Z,71.00
2023-05-22T01:03:27.571Z,70.70
2023-05-22T01:05:56.458Z,70.80
2023-05-22T01:08:24.810Z,70.80
2023-05-22T01:11:02.819Z,70.90
2023-05-22T01:13:39.192Z,71.40
2023-05-22T01:16:12.658Z,71.40
2023-05-22T01:18:46.425Z,71.50
2023-05-22T01:21:22.394Z,71.60
2023-05-22T01:24:22.071Z,71.60
2023-05-22T01:27:16.206Z,71.90
2023-05-22T01:29:49.383Z,71.90
2023-05-22T01:32:22.744Z,71.50
2023-05-22T01:34:55.607Z,71.60
2023-05-22T01:37:25.370Z,71.50
2023-05-22T01:39:54.416Z,71.30
2023-05-22T01:42:23.023Z,71.40
2023-05-22T01:44:51.215Z,71.50
2023-05-22T01:47:20.957Z,71.50
2023-05-22T01:49:49.189Z,71.70
2023-05-22T01:52:26.669Z,71.50
2023-05-22T01:55:03.626Z,71.90
2023-05-22T01:57:41.392Z,71.90
2023-05-22T02:00:14.547Z,72.00
2023-05-22T02:02:48.957Z,71.90
2023-05-22T02:05:19.592Z,71.80
2023-05-22T02:07:49.146Z,72.30
2023-05-22T02:10:19.349Z,71.50
2023-05-22T02:12:47.739Z,71.60
2023-05-22T02:15:16.474Z,71.60
2023-05-22T02:17:47.961Z,71.80
2023-05-22T02:20:17.137Z,72.00
2023-05-22T02:22:46.376Z,72.00
2023-05-22T02:25:15.245Z,72.10
2023-05-22T02:27:43.853Z,72.00
2023-05-22T02:30:12.890Z,72.00
2023-05-22T02:32:41.480Z,72.00
2023-05-22T02:35:11.580Z,72.10
2023-05-22T02:37:40.057Z,72.30
2023-05-22T02:40:10.066Z,72.10
2023-05-22T02:42:38.323Z,72.20
2023-05-22T02:45:07.697Z,72.20
2023-05-22T02:47:35.832Z,72.20
2023-05-22T02:50:04.025Z,72.20
2023-05-22T02:52:33.501Z,72.40
2023-05-22T02:55:01.600Z,72.70
2023-05-22T02:57:29.706Z,72.60
2023-05-22T02:59:59.201Z,72.80
2023-05-22T03:02:28.399Z,72.70
2023-05-22T03:04:59.012Z,72.80
2023-05-22T03:07:29.530Z,72.80
2023-05-22T03:09:59.139Z,72.70
2023-05-22T03:12:27.286Z,72.90
2023-05-22T03:14:55.505Z,72.70
2023-05-22T03:17:23.638Z,72.60
2023-05-22T03:19:51.738Z,72.70
2023-05-22T03:22:19.842Z,72.90
2023-05-22T03:24:47.967Z,73.00
2023-05-22T03:27:18.036Z,73.10
2023-05-22T03:29:46.130Z,73.40
2023-05-22T03:32:14.328Z,73.40
2023-05-22T03:34:43.391Z,74.20
2023-05-22T03:37:11.631Z,73.80
2023-05-22T03:39:40.487Z,73.90
2023-05-22T03:42:08.718Z,74.00
2023-05-22T03:44:38.247Z,74.00
2023-05-22T03:47:06.854Z,74.30
2023-05-22T03:49:34.987Z,74.20
2023-05-22T03:52:03.582Z,74.20
2023-05-22T03:54:31.690Z,74.30
2023-05-22T03:56:59.782Z,74.40
2023-05-22T03:59:28.008Z,75.30
2023-05-22T04:01:57.954Z,74.70
2023-05-22T04:04:26.944Z,74.80
2023-05-22T04:06:58.032Z,74.60
2023-05-22T04:09:28.590Z,74.80
2023-05-22T04:11:56.677Z,75.00
2023-05-22T04:14:24.770Z,74.90
2023-05-22T04:16:52.853Z,75.60
2023-05-22T04:19:22.543Z,75.00
2023-05-22T04:21:50.662Z,75.30
2023-05-22T04:24:18.867Z,75.20
2023-05-22T04:26:47.918Z,75.40
2023-05-22T04:29:16.538Z,75.40
2023-05-22T04:31:44.760Z,75.50
2023-05-22T04:34:14.021Z,75.60
2023-05-22T04:36:45.206Z,75.70
2023-05-22T04:39:14.208Z,75.90
2023-05-22T04:41:42.344Z,75.90
2023-05-22T04:44:10.501Z,76.00
2023-05-22T04:46:38.666Z,76.10
2023-05-22T04:49:06.869Z,76.20
2023-05-22T04:51:35.080Z,76.40
2023-05-22T04:54:04.755Z,76.40
2023-05-22T04:56:36.800Z,76.70
2023-05-22T04:59:08.894Z,76.60
2023-05-22T05:01:37.987Z,76.60
2023-05-22T05:04:06.536Z,76.80
2023-05-22T05:06:35.886Z,77.00
2023-05-22T05:09:05.495Z,76.90
2023-05-22T05:11:33.607Z,76.80
2023-05-22T05:14:02.005Z,76.60
2023-05-22T05:16:30.192Z,76.50
2023-05-22T05:18:58.562Z,76.50
2023-05-22T05:21:28.012Z,76.50
2023-05-22T05:23:56.261Z,76.50
2023-05-22T05:26:27.170Z,76.60
2023-05-22T05:28:56.703Z,76.90
2023-05-22T05:31:25.062Z,76.80
2023-05-22T05:33:53.237Z,76.90
2023-05-22T05:36:21.368Z,77.10
2023-05-22T05:38:49.482Z,77.10
2023-05-22T05:41:19.093Z,77.20
2023-05-22T05:43:48.931Z,77.10
2023-05-22T05:46:17.140Z,77.40
2023-05-22T05:48:45.373Z,77.20
2023-05-22T05:51:13.568Z,77.20
2023-05-22T05:53:41.768Z,77.10
2023-05-22T05:56:10.034Z,77.00
2023-05-22T05:58:38.543Z,76.90
2023-05-22T06:01:08.428Z,76.70
2023-05-22T06:03:36.698Z,76.70
2023-05-22T06:06:05.470Z,76.40
2023-05-22T06:08:34.529Z,76.80
2023-05-22T06:11:03.427Z,75.90
2023-05-22T06:13:31.572Z,75.80
2023-05-22T06:16:02.824Z,75.70
2023-05-22T06:18:34.280Z,75.60
2023-05-22T06:21:02.496Z,75.30
2023-05-22T06:23:30.921Z,75.00
2023-05-22T06:25:59.065Z,75.10
2023-05-22T06:28:27.467Z,75.30
2023-05-22T06:30:56.961Z,75.10
2023-05-22T06:33:25.183Z,74.90
2023-05-22T06:35:55.535Z,74.70
2023-05-22T06:38:23.735Z,74.80
2023-05-22T06:40:51.919Z,74.90
2023-05-22T06:43:20.207Z,75.00
2023-05-22T06:45:48.395Z,74.60
2023-05-22T06:48:16.851Z,74.30
2023-05-22T06:50:44.973Z,74.20
2023-05-22T06:53:14.519Z,73.90
2023-05-22T06:55:42.998Z,73.70
2023-05-22T06:58:11.117Z,73.50
2023-05-22T07:00:39.572Z,73.10
2023-05-22T07:03:08.547Z,72.60
2023-05-22T07:05:36.856Z,72.50
2023-05-22T07:08:05.357Z,72.40
2023-05-22T07:10:34.857Z,72.10
2023-05-22T07:13:03.071Z,71.30
2023-05-22T07:15:31.220Z,71.00
2023-05-22T07:17:59.383Z,70.90
2023-05-22T07:20:27.761Z,70.50
2023-05-22T07:22:55.925Z,70.50
2023-05-22T07:25:24.043Z,70.20
2023-05-22T07:27:53.559Z,68.70
2023-05-22T07:30:21.688Z,68.30
2023-05-22T07:32:50.014Z,67.60
2023-05-22T07:35:18.312Z,67.00
2023-05-22T07:37:46.442Z,66.90
2023-05-22T07:40:15.039Z,66.20
2023-05-22T07:42:43.148Z,65.90
2023-05-22T07:45:13.204Z,65.50
2023-05-22T07:47:41.408Z,64.70
2023-05-22T07:50:10.465Z,64.80
2023-05-22T07:52:38.621Z,64.00
2023-05-22T07:55:08.501Z,64.10
2023-05-22T07:57:36.831Z,63.30
2023-05-22T08:00:13.912Z,62.90
2023-05-22T08:02:44.154Z,62.30
2023-05-22T08:05:13.621Z,62.00
2023-05-22T08:07:41.802Z,61.80
2023-05-22T08:10:15.703Z,61.60
2023-05-22T08:12:44.143Z,59.80
2023-05-22T08:15:12.943Z,59.80
2023-05-22T08:17:41.170Z,59.20
2023-05-22T08:20:12.076Z,58.70
2023-05-22T08:22:41.419Z,57.70
2023-05-22T08:25:10.518Z,57.80
2023-05-22T08:27:38.646Z,57.50
2023-05-22T08:30:08.095Z,57.40
2023-05-22T08:32:36.340Z,57.20
2023-05-22T08:35:05.253Z,56.80
2023-05-22T08:37:34.881Z,57.00
2023-05-22T08:40:03.347Z,56.20
2023-05-22T08:42:31.503Z,56.30
2023-05-22T08:45:01.441Z,55.70
2023-05-22T08:47:32.983Z,55.60
2023-05-22T08:50:02.633Z,55.30
2023-05-22T08:52:36.900Z,54.50
2023-05-22T08:55:06.732Z,53.60
2023-05-22T08:57:35.942Z,53.70
2023-05-22T09:00:05.953Z,53.50
2023-05-22T09:02:34.503Z,53.20
2023-05-22T09:05:05.500Z,52.70
2023-05-22T09:07:35.189Z,52.40
2023-05-22T09:10:05.786Z,52.60
2023-05-22T09:12:34.288Z,52.90
2023-05-22T09:15:10.518Z,52.70
2023-05-22T09:17:41.606Z,52.30
2023-05-22T09:20:13.306Z,52.30
2023-05-22T09:22:43.152Z,52.20
2023-05-22T09:25:18.669Z,51.90
2023-05-22T09:27:47.308Z,51.90
2023-05-22T09:30:18.628Z,52.00
2023-05-22T09:32:47.762Z,51.40
2023-05-22T09:35:16.596Z,51.70
2023-05-22T09:37:46.347Z,51.10
2023-05-22T09:40:15.041Z,50.70
2023-05-22T09:42:46.906Z,50.40
2023-05-22T09:45:15.574Z,49.60
2023-05-22T09:47:49.664Z,50.10
2023-05-22T09:50:18.614Z,49.60
2023-05-22T09:52:50.967Z,49.40
2023-05-22T09:55:23.028Z,48.50
2023-05-22T09:57:53.596Z,48.40
2023-05-22T10:00:24.242Z,48.00
2023-05-22T10:03:03.421Z,47.70
2023-05-22T10:05:34.176Z,46.90
2023-05-22T10:08:11.943Z,47.40
2023-05-22T10:10:44.925Z,47.50
2023-05-22T10:13:13.508Z,46.40
2023-05-22T10:15:42.605Z,46.70
2023-05-22T10:18:12.873Z,46.10
2023-05-22T10:20:41.474Z,46.10
2023-05-22T10:23:11.714Z,45.90
2023-05-22T10:25:40.402Z,45.10
2023-05-22T10:28:10.013Z,45.20
2023-05-22T10:30:45.290Z,44.60
2023-05-22T10:33:18.203Z,44.50
2023-05-22T10:35:51.166Z,44.20
2023-05-22T10:39:04.049Z,43.70
2023-05-22T10:41:32.447Z,43.50
2023-05-22T10:44:00.923Z,44.10
2023-05-22T10:46:34.753Z,43.80
2023-05-22T10:49:03.171Z,42.30
2023-05-22T10:51:34.360Z,42.50
2023-05-22T10:54:05.496Z,42.30
2023-05-22T10:56:38.312Z,41.90
2023-05-22T10:59:08.445Z,41.90
2023-05-22T11:01:38.513Z,42.30
2023-05-22T11:04:14.364Z,41.90
2023-05-22T11:06:45.743Z,40.50
2023-05-22T11:09:28.681Z,40.20
2023-05-22T11:12:17.224Z,39.20
2023-05-22T11:14:51.198Z,42.60
2023-05-22T11:17:22.533Z,41.10
2023-05-22T11:20:02.736Z,41.70
2023-05-22T11:22:33.474Z,40.50
2023-05-22T11:25:06.268Z,40.60
2023-05-22T11:27:34.789Z,39.70
2023-05-22T11:30:03.233Z,40.20
2023-05-22T11:32:31.761Z,40.00
2023-05-22T11:35:00.192Z,39.70
2023-05-22T11:37:28.676Z,39.20
2023-05-22T11:39:58.523Z,39.20
2023-05-22T11:42:28.263Z,39.10
2023-05-22T11:44:57.619Z,39.00
2023-05-22T11:47:29.113Z,38.70
2023-05-22T11:49:59.819Z,38.30
2023-05-22T11:52:32.916Z,37.90
2023-05-22T11:55:01.734Z,37.80
2023-05-22T11:57:32.169Z,38.20
2023-05-22T12:00:00.714Z,38.60
2023-05-22T12:02:29.361Z,38.80
2023-05-22T12:04:58.592Z,38.80
2023-05-22T12:07:28.862Z,38.90
2023-05-22T12:09:58.804Z,39.30
2023-05-22T12:12:27.242Z,39.60
2023-05-22T12:14:58.632Z,39.60
2023-05-22T12:17:29.644Z,38.90
2023-05-22T12:19:59.176Z,39.60
2023-05-22T12:22:29.821Z,39.00
2023-05-22T12:24:58.242Z,38.80
2023-05-22T12:27:33.369Z,38.50
2023-05-22T12:30:10.954Z,38.10
2023-05-22T12:32:41.871Z,38.70
2023-05-22T12:35:17.501Z,37.90
2023-05-22T12:37:50.409Z,37.30
2023-05-22T12:40:19.159Z,37.40
2023-05-22T12:42:48.934Z,36.80
2023-05-22T12:45:19.139Z,37.20
2023-05-22T12:47:47.560Z,36.80
2023-05-22T12:50:16.003Z,36.20
2023-05-22T12:52:44.347Z,35.80
2023-05-22T12:55:13.098Z,36.00
2023-05-22T12:57:41.493Z,36.20
2023-05-22T13:00:11.443Z,36.40
2023-05-22T13:02:41.452Z,36.30
2023-05-22T13:05:10.142Z,36.00
2023-05-22T13:07:38.673Z,36.30
2023-05-22T13:10:07.963Z,35.90
2023-05-22T13:12:37.491Z,35.20
2023-05-22T13:15:06.785Z,35.00
2023-05-22T13:17:35.445Z,35.00
2023-05-22T13:20:05.592Z,34.90
2023-05-22T13:22:34.024Z,34.60
2023-05-22T13:25:02.337Z,34.60
2023-05-22T13:27:33.341Z,34.30
2023-05-22T13:30:02.238Z,34.10
2023-05-22T13:32:30.618Z,34.10
2023-05-22T13:34:58.957Z,33.80
2023-05-22T13:37:28.797Z,33.70
2023-05-22T13:39:57.468Z,33.40
2023-05-22T13:42:25.948Z,33.90
2023-05-22T13:44:54.244Z,33.60
2023-05-22T13:47:23.407Z,33.10
2023-05-22T13:49:52.035Z,32.90
2023-05-22T13:52:20.420Z,32.80
2023-05-22T13:54:50.256Z,33.10
2023-05-22T13:57:18.623Z,33.60
2023-05-22T13:59:46.853Z,34.40
2023-05-22T14:02:15.243Z,34.00
2023-05-22T14:04:43.536Z,34.50
2023-05-22T14:07:11.841Z,34.50
2023-05-22T14:09:40.163Z,34.70
2023-05-22T14:12:10.103Z,35.30
2023-05-22T14:14:38.367Z,34.80
2023-05-22T14:17:08.764Z,35.20
2023-05-22T14:19:37.566Z,35.60
2023-05-22T14:22:06.463Z,35.60
2023-05-22T14:24:34.836Z,35.40
2023-05-22T14:27:03.143Z,35.50
2023-05-22T14:29:32.858Z,35.40
2023-05-22T14:32:05.111Z,35.50
2023-05-22T14:34:33.698Z,35.50
2023-05-22T14:37:02.094Z,35.60
2023-05-22T14:39:30.629Z,35.30
2023-05-22T14:41:58.946Z,35.30
2023-05-22T14:44:27.553Z,35.10
2023-05-22T14:46:57.274Z,34.90
2023-05-22T14:49:25.588Z,34.40
2023-05-22T14:51:54.647Z,34.50
2023-05-22T14:54:23.913Z,34.90
2023-05-22T14:56:52.319Z,35.40
2023-05-22T14:59:21.205Z,36.20
2023-05-22T15:01:50.591Z,36.10
2023-05-22T15:04:20.792Z,36.50
2023-05-22T15:06:49.430Z,36.60
2023-05-22T15:09:17.934Z,36.60
2023-05-22T15:11:49.174Z,36.90
2023-05-22T15:14:17.739Z,37.40
2023-05-22T15:16:47.151Z,37.70
2023-05-22T15:19:15.616Z,38.10
2023-05-22T15:21:45.427Z,38.30
2023-05-22T15:24:14.327Z,38.50
2023-05-22T15:26:42.695Z,38.60
2023-05-22T15:29:12.683Z,39.00
2023-05-22T15:31:41.342Z,39.60
2023-05-22T15:34:09.821Z,39.60
2023-05-22T15:36:38.244Z,40.00
2023-05-22T15:39:08.062Z,40.10
2023-05-22T15:41:37.396Z,40.20
2023-05-22T15:44:05.920Z,40.40
2023-05-22T15:46:34.393Z,40.60
2023-05-22T15:49:02.799Z,40.70
2023-05-22T15:51:31.213Z,41.00
2023-05-22T15:53:59.738Z,41.10
2023-05-22T15:56:29.178Z,41.30
2023-05-22T15:58:57.291Z,41.50
2023-05-22T16:01:25.939Z,41.50
2023-05-22T16:03:54.433Z,41.70
2023-05-22T16:06:23.293Z,41.90
2023-05-22T16:08:51.451Z,41.80
2023-05-22T16:11:19.680Z,41.90
2023-05-22T16:13:49.324Z,42.00
2023-05-22T16:16:18.033Z,42.20
2023-05-22T16:18:46.250Z,42.20
2023-05-22T16:21:14.440Z,42.30
2023-05-22T16:23:42.656Z,42.40
2023-05-22T16:26:10.932Z,42.60
2023-05-22T16:28:39.048Z,42.70
2023-05-22T16:31:08.599Z,43.00
2023-05-22T16:33:37.575Z,43.10
2023-05-22T16:36:06.365Z,43.10
2023-05-22T16:38:34.596Z,43.00
2023-05-22T16:41:02.717Z,43.00
2023-05-22T16:43:31.242Z,43.10
2023-05-22T16:45:59.401Z,43.50
2023-05-22T16:48:28.951Z,43.70
2023-05-22T16:50:57.044Z,45.20
2023-05-22T16:53:25.124Z,45.50
2023-05-22T16:55:53.234Z,45.00
2023-05-22T16:58:21.834Z,44.50
2023-05-22T17:00:50.186Z,43.90
2023-05-22T17:03:18.539Z,43.40
2023-05-22T17:05:48.478Z,43.20
2023-05-22T17:08:17.275Z,43.10
2023-05-22T17:10:45.499Z,42.90
2023-05-22T17:13:20.671Z,42.80
2023-05-22T17:15:49.485Z,42.70
2023-05-22T17:18:19.779Z,42.60
2023-05-22T17:20:49.484Z,42.60
2023-05-22T17:23:18.380Z,42.40
2023-05-22T17:25:47.285Z,42.30
2023-05-22T17:28:16.491Z,42.20
2023-05-22T17:30:45.275Z,42.20
2023-05-22T17:33:14.043Z,42.30
2023-05-22T17:35:42.458Z,42.30
2023-05-22T17:38:11.983Z,42.40
2023-05-22T17:40:45.656Z,42.50
2023-05-22T17:43:15.079Z,42.50
2023-05-22T17:45:44.723Z,42.50
2023-05-22T17:48:14.521Z,42.90
2023-05-22T17:50:43.160Z,43.00
2023-05-22T17:53:13.473Z,43.20
2023-05-22T17:55:41.600Z,43.20
2023-05-22T17:58:09.853Z,43.30
2023-05-22T18:00:38.189Z,43.30
2023-05-22T18:03:07.662Z,43.20
2023-05-22T18:05:36.755Z,43.10
2023-05-22T18:08:05.089Z,43.20
2023-05-22T18:10:34.833Z,43.90
2023-05-22T18:13:03.101Z,44.70
2023-05-22T18:15:32.877Z,45.30
2023-05-22T18:18:01.040Z,45.70
2023-05-22T18:20:29.288Z,46.10
2023-05-22T18:22:57.385Z,46.50
2023-05-22T18:25:25.720Z,46.70
2023-05-22T18:27:55.560Z,46.90
2023-05-22T18:30:23.757Z,47.20
2023-05-22T18:32:51.892Z,47.30
2023-05-22T18:35:20.148Z,47.50
2023-05-22T18:37:48.245Z,47.70
2023-05-22T18:40:16.403Z,47.90
2023-05-22T18:42:44.585Z,48.10
2023-05-22T18:45:14.383Z,48.30
2023-05-22T18:47:42.723Z,48.60
2023-05-22T18:50:11.729Z,48.60
2023-05-22T18:52:40.132Z,49.10
2023-05-22T18:55:09.016Z,49.60
2023-05-22T18:57:37.251Z,50.00
2023-05-22T19:00:07.041Z,50.40
2023-05-22T19:02:36.959Z,50.80
2023-05-22T19:05:05.803Z,51.20
2023-05-22T19:07:34.047Z,51.40
2023-05-22T19:10:02.277Z,51.70
2023-05-22T19:12:31.747Z,52.20
2023-05-22T19:15:00.931Z,52.70
2023-05-22T19:17:29.118Z,53.00
2023-05-22T19:19:58.710Z,53.60
2023-05-22T19:22:26.806Z,54.20
2023-05-22T19:24:54.995Z,54.10
2023-05-22T19:27:23.135Z,54.30
2023-05-22T19:29:51.249Z,54.40
2023-05-22T19:32:19.355Z,54.70
2023-05-22T19:34:47.526Z,54.80
2023-05-22T19:37:17.263Z,55.00
2023-05-22T19:39:45.736Z,55.50
2023-05-22T19:42:13.936Z,56.10
2023-05-22T19:44:42.408Z,55.50
2023-05-22T19:47:10.701Z,55.70
2023-05-22T19:49:39.076Z,55.90
2023-05-22T19:52:07.784Z,56.00
2023-05-22T19:54:37.369Z,56.20
2023-05-22T19:57:05.702Z,56.40
2023-05-22T19:59:36.528Z,56.40
2023-05-22T20:02:05.128Z,56.60
2023-05-22T20:04:34.365Z,56.60
2023-05-22T20:07:03.791Z,56.70
2023-05-22T20:09:32.016Z,56.80
2023-05-22T20:12:01.529Z,57.10
2023-05-22T20:14:29.640Z,57.50
2023-05-22T20:16:58.934Z,57.50
2023-05-22T20:19:28.453Z,57.70
2023-05-22T20:21:58.337Z,57.90
2023-05-22T20:24:26.502Z,58.20
2023-05-22T20:26:54.706Z,58.30
2023-05-22T20:29:24.262Z,58.50
2023-05-22T20:31:54.460Z,58.80
2023-05-22T20:34:23.606Z,58.90
2023-05-22T20:36:52.924Z,59.10
2023-05-22T20:39:22.247Z,59.30
2023-05-22T20:41:50.893Z,59.50
2023-05-22T20:44:23.683Z,59.70
2023-05-22T20:46:53.374Z,60.10
2023-05-22T20:49:21.773Z,60.20
2023-05-22T20:51:50.914Z,60.10
2023-05-22T20:54:19.423Z,60.30
2023-05-22T20:56:47.561Z,60.30
2023-05-22T20:59:15.867Z,60.40
2023-05-22T21:01:44.070Z,60.70
2023-05-22T21:04:14.005Z,60.80
2023-05-22T21:06:42.172Z,61.00
2023-05-22T21:09:10.279Z,60.90
2023-05-22T21:11:38.532Z,60.80
2023-05-22T21:14:06.977Z,60.70
2023-05-22T21:16:37.601Z,60.70
2023-05-22T21:19:07.700Z,60.70
2023-05-22T21:21:41.820Z,60.60
2023-05-22T21:24:10.608Z,60.80
2023-05-22T21:26:38.764Z,60.40
2023-05-22T21:29:07.259Z,60.20
2023-05-22T21:31:35.860Z,60.00
2023-05-22T21:34:04.186Z,59.90
2023-05-22T21:36:32.709Z,59.70
2023-05-22T21:39:02.292Z,59.70
2023-05-22T21:41:30.657Z,60.90
2023-05-22T21:43:59.424Z,61.10
2023-05-22T21:46:27.707Z,60.90
2023-05-22T21:48:56.106Z,60.30
2023-05-22T21:51:24.250Z,60.80
2023-05-22T21:53:52.547Z,60.20
2023-05-22T21:56:22.061Z,60.10
2023-05-22T21:58:50.312Z,60.40
2023-05-22T22:01:18.675Z,60.20
2023-05-22T22:03:47.127Z,59.90
2023-05-22T22:06:15.448Z,59.70
2023-05-22T22:08:43.647Z,59.50
2023-05-22T22:11:11.763Z,59.50
2023-05-22T22:13:41.241Z,59.50
2023-05-22T22:16:09.563Z,59.40
2023-05-22T22:18:37.995Z,59.40
2023-05-22T22:21:06.122Z,59.40
2023-05-22T22:23:34.260Z,59.40
2023-05-22T22:26:02.347Z,59.40
2023-05-22T22:28:30.535Z,59.50
2023-05-22T22:31:01.320Z,59.50
2023-05-22T22:33:30.371Z,59.70
2023-05-22T22:35:58.531Z,59.70
2023-05-22T22:38:26.866Z,59.80
2023-05-22T22:40:54.998Z,59.90
2023-05-22T22:43:23.158Z,59.90
2023-05-22T22:45:51.394Z,60.00
2023-05-22T22:48:22.406Z,60.10
2023-05-22T22:50:52.387Z,60.40
2023-05-22T22:53:20.702Z,60.40
2023-05-22T22:55:49.696Z,60.50
2023-05-22T22:58:18.733Z,60.60
2023-05-22T23:00:46.827Z,60.80
2023-05-22T23:03:14.935Z,60.80
2023-05-22T23:05:44.697Z,61.10
2023-05-22T23:08:13.142Z,61.30
2023-05-22T23:10:41.252Z,61.40
2023-05-22T23:13:09.393Z,61.50
2023-05-22T23:15:37.555Z,61.60
2023-05-22T23:18:06.035Z,61.70
2023-05-22T23:20:34.250Z,62.00
2023-05-22T23:23:03.756Z,62.00
2023-05-22T23:25:31.993Z,62.40
2023-05-22T23:28:00.116Z,62.40
2023-05-22T23:30:28.242Z,62.60
2023-05-22T23:32:56.467Z,62.70
2023-05-22T23:35:24.627Z,63.00
2023-05-22T23:37:52.711Z,63.80
2023-05-22T23:40:22.272Z,63.20
2023-05-22T23:42:50.773Z,63.60
2023-05-22T23:45:18.937Z,63.60
2023-05-22T23:47:47.076Z,63.80
2023-05-22T23:50:15.321Z,64.00
2023-05-22T23:52:43.570Z,64.30
2023-05-22T23:55:11.800Z,64.50
2023-05-22T23:57:41.293Z,64.70
